sensor_id;sensor_type;location;lat;lon;timestamp;pressure;altitude;pressure_sealevel;temperature;humidity
3812;BME280;1921;49.368;11.068;2024-03-08T00:01:31;97748.06;;;-0.30;88.89
3812;BME280;1921;49.368;11.068;2024-03-08T00:03:56;97742.88;;;-0.41;89.32
3812;BME280;1921;49.368;11.068;2024-03-08T00:06:22;97803.78;;;-0.08;90.36
3812;BME280;1921;49.368;11.068;2024-03-08T00:08:48;97823.97;;;-0.04;90.07
3812;BME280;1921;49.368;11.068;2024-03-08T00:11:14;97729.75;;;-0.62;89.37
3812;BME280;1921;49.368;11.068;2024-03-08T00:13:39;97723.53;;;-0.71;89.70
3812;BME280;1921;49.368;11.068;2024-03-08T00:16:05;97819.38;;;-0.11;89.90
3812;BME280;1921;49.368;11.068;2024-03-08T00:18:31;97749.25;;;-0.60;89.39
3812;BME280;1921;49.368;11.068;2024-03-08T00:20:56;97764.47;;;-0.45;89.83
3812;BME280;1921;49.368;11.068;2024-03-08T00:23:22;97797.66;;;-0.31;89.73
3812;BME280;1921;49.368;11.068;2024-03-08T00:25:48;97766.03;;;-0.56;88.76
3812;BME280;1921;49.368;11.068;2024-03-08T00:28:14;97715.06;;;-0.97;88.82
3812;BME280;1921;49.368;11.068;2024-03-08T00:30:42;97747.63;;;-0.73;89.74
3812;BME280;1921;49.368;11.068;2024-03-08T00:33:08;97716.41;;;-0.91;90.60
3812;BME280;1921;49.368;11.068;2024-03-08T00:35:34;97764.78;;;-0.63;90.50
3812;BME280;1921;49.368;11.068;2024-03-08T00:37:59;97721.69;;;-0.82;91.53
3812;BME280;1921;49.368;11.068;2024-03-08T00:40:25;97804.72;;;-0.22;91.94
3812;BME280;1921;49.368;11.068;2024-03-08T00:42:51;97762.13;;;-0.48;91.38
3812;BME280;1921;49.368;11.068;2024-03-08T00:45:18;97700.22;;;-0.79;91.18
3812;BME280;1921;49.368;11.068;2024-03-08T00:47:44;97744.00;;;-0.45;92.12
3812;BME280;1921;49.368;11.068;2024-03-08T00:50:10;97745.84;;;-0.47;91.98
3812;BME280;1921;49.368;11.068;2024-03-08T00:52:37;97766.19;;;-0.33;91.65
3812;BME280;1921;49.368;11.068;2024-03-08T00:55:03;97754.53;;;-0.37;91.50
3812;BME280;1921;49.368;11.068;2024-03-08T00:57:29;97767.94;;;-0.34;91.90
3812;BME280;1921;49.368;11.068;2024-03-08T00:59:55;97789.97;;;-0.18;91.95
3812;BME280;1921;49.368;11.068;2024-03-08T01:02:21;97731.19;;;-0.58;91.41
3812;BME280;1921;49.368;11.068;2024-03-08T01:04:48;97788.94;;;-0.16;96.17
3812;BME280;1921;49.368;11.068;2024-03-08T01:07:14;97762.38;;;-0.15;96.14
3812;BME280;1921;49.368;11.068;2024-03-08T01:09:40;97782.72;;;-0.01;98.22
3812;BME280;1921;49.368;11.068;2024-03-08T01:12:06;97749.44;;;-0.13;99.03
3812;BME280;1921;49.368;11.068;2024-03-08T01:14:33;97730.81;;;-0.15;99.30
3812;BME280;1921;49.368;11.068;2024-03-08T01:16:58;97707.63;;;-0.14;98.76
3812;BME280;1921;49.368;11.068;2024-03-08T01:19:24;97710.31;;;0.09;98.10
3812;BME280;1921;49.368;11.068;2024-03-08T01:21:50;97724.81;;;0.21;98.39
3812;BME280;1921;49.368;11.068;2024-03-08T01:24:16;97717.88;;;0.34;98.33
3812;BME280;1921;49.368;11.068;2024-03-08T01:26:42;97704.72;;;0.39;97.24
3812;BME280;1921;49.368;11.068;2024-03-08T01:29:08;97760.41;;;0.96;96.08
3812;BME280;1921;49.368;11.068;2024-03-08T01:31:34;97705.16;;;0.68;95.38
3812;BME280;1921;49.368;11.068;2024-03-08T01:33:59;97677.47;;;0.49;95.42
3812;BME280;1921;49.368;11.068;2024-03-08T01:36:25;97677.72;;;0.57;95.00
3812;BME280;1921;49.368;11.068;2024-03-08T01:38:52;97717.16;;;0.67;95.62
3812;BME280;1921;49.368;11.068;2024-03-08T01:41:18;97676.06;;;0.45;95.45
3812;BME280;1921;49.368;11.068;2024-03-08T01:43:44;97707.25;;;0.63;95.29
3812;BME280;1921;49.368;11.068;2024-03-08T01:46:15;97703.16;;;0.60;95.07
3812;BME280;1921;49.368;11.068;2024-03-08T01:48:43;97695.69;;;0.57;94.77
3812;BME280;1921;49.368;11.068;2024-03-08T01:51:09;97653.75;;;0.34;94.83
3812;BME280;1921;49.368;11.068;2024-03-08T01:53:37;97652.47;;;0.29;94.97
3812;BME280;1921;49.368;11.068;2024-03-08T01:56:05;97689.50;;;0.60;93.18
3812;BME280;1921;49.368;11.068;2024-03-08T01:58:31;97537.16;;;-0.31;92.72
3812;BME280;1921;49.368;11.068;2024-03-08T02:00:58;97694.19;;;0.66;93.80
3812;BME280;1921;49.368;11.068;2024-03-08T02:03:24;97646.31;;;0.42;93.39
3812;BME280;1921;49.368;11.068;2024-03-08T02:05:50;97677.13;;;0.53;93.83
3812;BME280;1921;49.368;11.068;2024-03-08T02:08:18;97656.69;;;0.41;94.40
3812;BME280;1921;49.368;11.068;2024-03-08T02:10:44;97702.03;;;0.75;93.68
3812;BME280;1921;49.368;11.068;2024-03-08T02:13:11;97693.38;;;0.65;93.84
3812;BME280;1921;49.368;11.068;2024-03-08T02:16:04;97645.94;;;0.36;93.27
3812;BME280;1921;49.368;11.068;2024-03-08T02:18:30;97665.38;;;0.62;93.14
3812;BME280;1921;49.368;11.068;2024-03-08T02:21:03;97682.66;;;0.71;93.58
3812;BME280;1921;49.368;11.068;2024-03-08T02:23:28;97603.13;;;0.14;94.19
3812;BME280;1921;49.368;11.068;2024-03-08T02:25:56;97654.81;;;0.32;95.00
3812;BME280;1921;49.368;11.068;2024-03-08T02:28:23;97629.69;;;0.13;96.56
3812;BME280;1921;49.368;11.068;2024-03-08T02:30:50;97611.34;;;-0.05;96.47
3812;BME280;1921;49.368;11.068;2024-03-08T02:33:18;97651.16;;;0.23;96.51
3812;BME280;1921;49.368;11.068;2024-03-08T02:35:44;97627.53;;;-0.05;97.84
3812;BME280;1921;49.368;11.068;2024-03-08T02:38:18;97652.97;;;0.10;98.16
3812;BME280;1921;49.368;11.068;2024-03-08T02:40:46;97668.75;;;0.16;98.90
3812;BME280;1921;49.368;11.068;2024-03-08T02:43:13;97602.28;;;-0.22;98.27
3812;BME280;1921;49.368;11.068;2024-03-08T02:45:40;97680.09;;;0.25;98.69
3812;BME280;1921;49.368;11.068;2024-03-08T02:48:07;97609.50;;;-0.27;98.12
3812;BME280;1921;49.368;11.068;2024-03-08T02:50:34;97634.91;;;-0.24;99.01
3812;BME280;1921;49.368;11.068;2024-03-08T02:53:03;97592.06;;;-0.46;99.60
3812;BME280;1921;49.368;11.068;2024-03-08T02:55:30;97648.84;;;-0.04;99.30
3812;BME280;1921;49.368;11.068;2024-03-08T02:57:56;97683.91;;;0.19;99.42
3812;BME280;1921;49.368;11.068;2024-03-08T03:00:23;97527.06;;;-0.80;98.93
3812;BME280;1921;49.368;11.068;2024-03-08T03:02:50;97593.97;;;-0.37;98.79
3812;BME280;1921;49.368;11.068;2024-03-08T03:05:23;97605.03;;;-0.36;99.71
3812;BME280;1921;49.368;11.068;2024-03-08T03:07:50;97629.16;;;-0.04;98.42
3812;BME280;1921;49.368;11.068;2024-03-08T03:10:19;97658.41;;;0.29;97.51
3812;BME280;1921;49.368;11.068;2024-03-08T03:12:45;97642.09;;;0.30;96.66
3812;BME280;1921;49.368;11.068;2024-03-08T03:15:12;97593.19;;;0.09;95.12
3812;BME280;1921;49.368;11.068;2024-03-08T03:17:39;97603.97;;;0.25;94.90
3812;BME280;1921;49.368;11.068;2024-03-08T03:20:07;97538.59;;;-0.15;93.33
3812;BME280;1921;49.368;11.068;2024-03-08T03:22:40;97669.59;;;0.63;93.71
3812;BME280;1921;49.368;11.068;2024-03-08T03:25:07;97646.31;;;0.42;92.99
3812;BME280;1921;49.368;11.068;2024-03-08T03:27:35;97643.53;;;0.45;91.48
3812;BME280;1921;49.368;11.068;2024-03-08T03:30:00;97593.91;;;0.11;91.61
3812;BME280;1921;49.368;11.068;2024-03-08T03:32:49;97645.28;;;0.45;91.41
3812;BME280;1921;49.368;11.068;2024-03-08T03:35:17;97592.97;;;0.12;91.50
3812;BME280;1921;49.368;11.068;2024-03-08T03:37:44;97635.44;;;0.28;91.24
3812;BME280;1921;49.368;11.068;2024-03-08T03:40:17;97527.91;;;-0.44;89.98
3812;BME280;1921;49.368;11.068;2024-03-08T03:42:44;97547.88;;;-0.37;90.29
3812;BME280;1921;49.368;11.068;2024-03-08T03:45:11;97653.16;;;0.19;89.68
3812;BME280;1921;49.368;11.068;2024-03-08T03:47:37;97627.41;;;-0.03;89.51
3812;BME280;1921;49.368;11.068;2024-03-08T03:50:05;97617.22;;;-0.16;89.77
3812;BME280;1921;49.368;11.068;2024-03-08T03:52:31;97588.63;;;-0.34;89.06
3812;BME280;1921;49.368;11.068;2024-03-08T03:54:57;97581.91;;;-0.47;89.61
3812;BME280;1921;49.368;11.068;2024-03-08T03:57:23;97541.88;;;-0.72;94.58
3812;BME280;1921;49.368;11.068;2024-03-08T03:59:49;97632.00;;;-0.19;97.43
3812;BME280;1921;49.368;11.068;2024-03-08T04:02:17;97614.22;;;-0.34;97.76
3812;BME280;1921;49.368;11.068;2024-03-08T04:04:43;97584.91;;;-0.53;98.36
3812;BME280;1921;49.368;11.068;2024-03-08T04:07:11;97647.47;;;-0.21;99.83
3812;BME280;1921;49.368;11.068;2024-03-08T04:09:36;97438.06;;;-1.48;100.00
3812;BME280;1921;49.368;11.068;2024-03-08T04:12:02;97575.38;;;-0.51;99.82
3812;BME280;1921;49.368;11.068;2024-03-08T04:14:28;97558.94;;;-0.60;99.21
3812;BME280;1921;49.368;11.068;2024-03-08T04:16:54;97586.38;;;-0.38;99.16
3812;BME280;1921;49.368;11.068;2024-03-08T04:19:19;97601.41;;;-0.10;98.88
3812;BME280;1921;49.368;11.068;2024-03-08T04:21:45;97599.69;;;-0.33;99.37
3812;BME280;1921;49.368;11.068;2024-03-08T04:24:11;97594.28;;;-0.41;99.93
3812;BME280;1921;49.368;11.068;2024-03-08T04:26:36;97517.31;;;-0.99;99.75
3812;BME280;1921;49.368;11.068;2024-03-08T04:29:03;97580.22;;;-0.60;100.00
3812;BME280;1921;49.368;11.068;2024-03-08T04:31:29;97595.16;;;-0.30;100.00
3812;BME280;1921;49.368;11.068;2024-03-08T04:33:56;97571.38;;;-0.32;99.58
3812;BME280;1921;49.368;11.068;2024-03-08T04:36:22;97530.84;;;-0.38;98.94
3812;BME280;1921;49.368;11.068;2024-03-08T04:38:49;97550.13;;;-0.45;99.81
3812;BME280;1921;49.368;11.068;2024-03-08T04:41:14;97532.13;;;-0.67;100.00
3812;BME280;1921;49.368;11.068;2024-03-08T04:43:40;97569.22;;;-0.49;100.00
3812;BME280;1921;49.368;11.068;2024-03-08T04:46:06;97579.94;;;-0.44;100.00
3812;BME280;1921;49.368;11.068;2024-03-08T04:48:31;97562.94;;;-0.45;100.00
3812;BME280;1921;49.368;11.068;2024-03-08T04:50:57;97554.53;;;-0.23;99.24
3812;BME280;1921;49.368;11.068;2024-03-08T04:53:23;97572.63;;;-0.13;99.03
3812;BME280;1921;49.368;11.068;2024-03-08T04:55:49;97543.34;;;-0.22;98.24
3812;BME280;1921;49.368;11.068;2024-03-08T04:58:15;97602.28;;;0.02;99.53
3812;BME280;1921;49.368;11.068;2024-03-08T05:00:41;97403.13;;;-1.37;99.61
3812;BME280;1921;49.368;11.068;2024-03-08T05:03:06;97552.75;;;-0.34;100.00
3812;BME280;1921;49.368;11.068;2024-03-08T05:05:32;97515.22;;;-0.70;100.00
3812;BME280;1921;49.368;11.068;2024-03-08T05:07:58;97607.41;;;-0.22;100.00
3812;BME280;1921;49.368;11.068;2024-03-08T05:10:24;97553.19;;;-0.40;100.00
3812;BME280;1921;49.368;11.068;2024-03-08T05:12:50;97547.56;;;-0.45;100.00
3812;BME280;1921;49.368;11.068;2024-03-08T05:15:16;97579.34;;;-0.23;100.00
3812;BME280;1921;49.368;11.068;2024-03-08T05:17:41;97552.63;;;-0.43;100.00
3812;BME280;1921;49.368;11.068;2024-03-08T05:20:08;97602.03;;;-0.06;100.00
3812;BME280;1921;49.368;11.068;2024-03-08T05:22:37;97572.00;;;-0.28;100.00
3812;BME280;1921;49.368;11.068;2024-03-08T05:25:04;97517.59;;;-0.67;100.00
3812;BME280;1921;49.368;11.068;2024-03-08T05:27:29;97564.63;;;-0.33;100.00
3812;BME280;1921;49.368;11.068;2024-03-08T05:29:55;97538.75;;;-0.41;100.00
3812;BME280;1921;49.368;11.068;2024-03-08T05:32:21;97501.16;;;-0.64;100.00
3812;BME280;1921;49.368;11.068;2024-03-08T05:34:47;97572.47;;;-0.23;100.00
3812;BME280;1921;49.368;11.068;2024-03-08T05:37:12;97557.66;;;-0.31;100.00
3812;BME280;1921;49.368;11.068;2024-03-08T05:39:38;97512.03;;;-0.61;100.00
3812;BME280;1921;49.368;11.068;2024-03-08T05:42:04;97555.00;;;-0.29;100.00
3812;BME280;1921;49.368;11.068;2024-03-08T05:44:30;97561.91;;;-0.18;100.00
3812;BME280;1921;49.368;11.068;2024-03-08T05:46:56;97511.66;;;-0.56;100.00
3812;BME280;1921;49.368;11.068;2024-03-08T05:49:22;97495.69;;;-0.71;100.00
3812;BME280;1921;49.368;11.068;2024-03-08T05:51:48;97560.44;;;-0.34;100.00
3812;BME280;1921;49.368;11.068;2024-03-08T05:54:14;97555.09;;;-0.31;100.00
3812;BME280;1921;49.368;11.068;2024-03-08T05:56:40;97523.59;;;-0.44;100.00
3812;BME280;1921;49.368;11.068;2024-03-08T05:59:10;97522.44;;;-0.40;100.00
3812;BME280;1921;49.368;11.068;2024-03-08T06:01:36;97530.84;;;-0.38;100.00
3812;BME280;1921;49.368;11.068;2024-03-08T06:04:03;97563.88;;;-0.22;100.00
3812;BME280;1921;49.368;11.068;2024-03-08T06:06:29;97578.84;;;-0.05;100.00
3812;BME280;1921;49.368;11.068;2024-03-08T06:08:55;97502.53;;;-0.47;100.00
3812;BME280;1921;49.368;11.068;2024-03-08T06:11:25;97543.47;;;-0.23;100.00
3812;BME280;1921;49.368;11.068;2024-03-08T06:13:55;97541.94;;;-0.26;100.00
3812;BME280;1921;49.368;11.068;2024-03-08T06:16:26;97576.88;;;0.10;100.00
3812;BME280;1921;49.368;11.068;2024-03-08T06:18:56;97528.16;;;-0.01;100.00
3812;BME280;1921;49.368;11.068;2024-03-08T06:21:24;97523.75;;;0.23;100.00
3812;BME280;1921;49.368;11.068;2024-03-08T06:23:54;97551.78;;;0.60;98.57
3812;BME280;1921;49.368;11.068;2024-03-08T06:26:21;97513.16;;;0.62;97.54
3812;BME280;1921;49.368;11.068;2024-03-08T06:28:48;97499.19;;;0.32;97.19
3812;BME280;1921;49.368;11.068;2024-03-08T06:31:14;97496.50;;;0.34;97.40
3812;BME280;1921;49.368;11.068;2024-03-08T06:33:40;97564.03;;;0.90;96.90
3812;BME280;1921;49.368;11.068;2024-03-08T06:36:06;97505.59;;;0.26;98.51
3812;BME280;1921;49.368;11.068;2024-03-08T06:38:32;97567.63;;;0.99;98.82
3812;BME280;1921;49.368;11.068;2024-03-08T06:40:58;97546.16;;;1.00;95.87
3812;BME280;1921;49.368;11.068;2024-03-08T06:43:25;97514.31;;;0.80;95.34
3812;BME280;1921;49.368;11.068;2024-03-08T06:45:58;97489.72;;;0.77;97.56
3812;BME280;1921;49.368;11.068;2024-03-08T06:48:23;97497.09;;;1.14;96.14
3812;BME280;1921;49.368;11.068;2024-03-08T06:50:49;97511.53;;;1.38;93.15
3812;BME280;1921;49.368;11.068;2024-03-08T06:53:15;97538.28;;;1.24;94.76
3812;BME280;1921;49.368;11.068;2024-03-08T06:55:44;97536.09;;;1.51;95.70
3812;BME280;1921;49.368;11.068;2024-03-08T06:58:10;97476.31;;;1.17;94.56
3812;BME280;1921;49.368;11.068;2024-03-08T07:00:37;97486.91;;;1.24;94.89
3812;BME280;1921;49.368;11.068;2024-03-08T07:03:03;97540.28;;;1.84;92.88
3812;BME280;1921;49.368;11.068;2024-03-08T07:05:29;97512.69;;;2.07;90.45
3812;BME280;1921;49.368;11.068;2024-03-08T07:07:56;97501.09;;;2.13;90.67
3812;BME280;1921;49.368;11.068;2024-03-08T07:10:22;97497.22;;;2.28;89.31
3812;BME280;1921;49.368;11.068;2024-03-08T07:12:50;97494.94;;;2.35;90.47
3812;BME280;1921;49.368;11.068;2024-03-08T07:15:16;97534.41;;;3.26;89.48
3812;BME280;1921;49.368;11.068;2024-03-08T07:17:46;97487.22;;;2.65;87.17
3812;BME280;1921;49.368;11.068;2024-03-08T07:20:15;97548.63;;;3.20;83.71
3812;BME280;1921;49.368;11.068;2024-03-08T07:22:48;97471.34;;;2.60;85.95
3812;BME280;1921;49.368;11.068;2024-03-08T07:25:14;97510.53;;;2.64;86.67
3812;BME280;1921;49.368;11.068;2024-03-08T07:27:54;97463.25;;;2.65;85.31
3812;BME280;1921;49.368;11.068;2024-03-08T07:30:22;97498.97;;;2.99;83.58
3812;BME280;1921;49.368;11.068;2024-03-08T07:33:07;97520.91;;;2.53;86.23
3812;BME280;1921;49.368;11.068;2024-03-08T07:35:33;97500.88;;;2.05;89.19
3812;BME280;1921;49.368;11.068;2024-03-08T07:38:07;97534.41;;;2.76;91.69
3812;BME280;1921;49.368;11.068;2024-03-08T07:40:40;97504.00;;;2.29;89.27
3812;BME280;1921;49.368;11.068;2024-03-08T07:43:10;97514.78;;;2.84;87.52
3812;BME280;1921;49.368;11.068;2024-03-08T07:45:37;97509.28;;;2.99;85.02
3812;BME280;1921;49.368;11.068;2024-03-08T07:48:04;97469.13;;;2.46;90.17
3812;BME280;1921;49.368;11.068;2024-03-08T07:50:36;97475.56;;;3.31;84.54
3812;BME280;1921;49.368;11.068;2024-03-08T07:53:03;97495.34;;;3.78;81.58
3812;BME280;1921;49.368;11.068;2024-03-08T07:55:29;97477.78;;;2.85;85.15
3812;BME280;1921;49.368;11.068;2024-03-08T07:57:57;97489.53;;;3.57;83.16
3812;BME280;1921;49.368;11.068;2024-03-08T08:00:22;97406.38;;;3.55;77.09
3812;BME280;1921;49.368;11.068;2024-03-08T08:02:49;97487.44;;;4.46;77.87
3812;BME280;1921;49.368;11.068;2024-03-08T08:05:15;97466.81;;;3.90;78.20
3812;BME280;1921;49.368;11.068;2024-03-08T08:07:46;97514.22;;;3.98;77.97
3812;BME280;1921;49.368;11.068;2024-03-08T08:10:13;97493.53;;;4.18;80.62
3812;BME280;1921;49.368;11.068;2024-03-08T08:12:48;97500.19;;;4.57;78.46
3812;BME280;1921;49.368;11.068;2024-03-08T08:15:14;97471.81;;;4.75;76.82
3812;BME280;1921;49.368;11.068;2024-03-08T08:17:44;97468.69;;;4.99;71.90
3812;BME280;1921;49.368;11.068;2024-03-08T08:20:11;97471.97;;;5.37;74.94
3812;BME280;1921;49.368;11.068;2024-03-08T08:22:42;97451.56;;;6.13;68.66
3812;BME280;1921;49.368;11.068;2024-03-08T08:25:11;97455.69;;;6.32;64.73
3812;BME280;1921;49.368;11.068;2024-03-08T08:27:42;97439.66;;;5.59;66.25
3812;BME280;1921;49.368;11.068;2024-03-08T08:30:11;97450.91;;;6.11;67.39
3812;BME280;1921;49.368;11.068;2024-03-08T08:32:37;97439.91;;;6.94;64.14
3812;BME280;1921;49.368;11.068;2024-03-08T08:35:08;97435.44;;;7.28;60.50
3812;BME280;1921;49.368;11.068;2024-03-08T08:37:39;97426.88;;;7.52;59.13
3812;BME280;1921;49.368;11.068;2024-03-08T08:40:06;97435.63;;;7.60;58.28
3812;BME280;1921;49.368;11.068;2024-03-08T08:42:38;97412.75;;;7.31;59.46
3812;BME280;1921;49.368;11.068;2024-03-08T08:45:06;97413.53;;;7.64;57.87
3812;BME280;1921;49.368;11.068;2024-03-08T08:47:37;97451.81;;;8.02;57.05
3812;BME280;1921;49.368;11.068;2024-03-08T08:50:03;97432.19;;;7.26;58.34
3812;BME280;1921;49.368;11.068;2024-03-08T08:52:32;97417.75;;;7.16;57.98
3812;BME280;1921;49.368;11.068;2024-03-08T08:54:58;97385.84;;;7.15;58.27
3812;BME280;1921;49.368;11.068;2024-03-08T08:57:24;97429.25;;;6.46;62.65
3812;BME280;1921;49.368;11.068;2024-03-08T08:59:49;97391.50;;;7.11;57.94
3812;BME280;1921;49.368;11.068;2024-03-08T09:02:15;97439.69;;;7.70;57.38
3812;BME280;1921;49.368;11.068;2024-03-08T09:04:42;97350.16;;;7.17;57.27
3812;BME280;1921;49.368;11.068;2024-03-08T09:07:09;97437.03;;;8.03;56.86
3812;BME280;1921;49.368;11.068;2024-03-08T09:09:35;97402.78;;;8.55;54.29
3812;BME280;1921;49.368;11.068;2024-03-08T09:12:01;97432.59;;;6.39;60.27
3812;BME280;1921;49.368;11.068;2024-03-08T09:14:27;97413.25;;;7.59;56.65
3812;BME280;1921;49.368;11.068;2024-03-08T09:16:53;97385.75;;;7.89;56.33
3812;BME280;1921;49.368;11.068;2024-03-08T09:19:18;97370.44;;;8.18;55.32
3812;BME280;1921;49.368;11.068;2024-03-08T09:21:45;97373.34;;;8.94;53.14
3812;BME280;1921;49.368;11.068;2024-03-08T09:24:11;97347.28;;;9.02;52.27
3812;BME280;1921;49.368;11.068;2024-03-08T09:26:38;97431.28;;;9.94;51.41
3812;BME280;1921;49.368;11.068;2024-03-08T09:29:06;97371.94;;;9.66;50.64
3812;BME280;1921;49.368;11.068;2024-03-08T09:31:32;97364.44;;;9.86;49.85
3812;BME280;1921;49.368;11.068;2024-03-08T09:33:58;97353.34;;;9.55;50.76
3812;BME280;1921;49.368;11.068;2024-03-08T09:36:24;97405.47;;;9.69;49.97
3812;BME280;1921;49.368;11.068;2024-03-08T09:38:50;97252.53;;;8.58;51.83
3812;BME280;1921;49.368;11.068;2024-03-08T09:41:16;97379.72;;;9.14;52.09
3812;BME280;1921;49.368;11.068;2024-03-08T09:43:45;97345.25;;;9.12;50.55
3812;BME280;1921;49.368;11.068;2024-03-08T09:46:12;97326.00;;;9.21;50.79
3812;BME280;1921;49.368;11.068;2024-03-08T09:48:40;97374.22;;;9.99;49.72
3812;BME280;1921;49.368;11.068;2024-03-08T09:51:07;97374.06;;;10.01;49.41
3812;BME280;1921;49.368;11.068;2024-03-08T09:53:34;97337.22;;;9.22;50.87
3812;BME280;1921;49.368;11.068;2024-03-08T09:56:00;97366.31;;;9.78;49.82
3812;BME280;1921;49.368;11.068;2024-03-08T09:58:29;97338.38;;;9.86;50.11
3812;BME280;1921;49.368;11.068;2024-03-08T10:01:00;97336.16;;;10.28;48.33
3812;BME280;1921;49.368;11.068;2024-03-08T10:03:30;97380.94;;;10.31;49.01
3812;BME280;1921;49.368;11.068;2024-03-08T10:05:58;97370.75;;;10.51;48.42
3812;BME280;1921;49.368;11.068;2024-03-08T10:08:27;97351.50;;;9.93;49.56
3812;BME280;1921;49.368;11.068;2024-03-08T10:10:55;97334.34;;;10.13;49.32
3812;BME280;1921;49.368;11.068;2024-03-08T10:13:25;97223.75;;;10.16;46.93
3812;BME280;1921;49.368;11.068;2024-03-08T10:15:54;97315.63;;;9.36;50.71
3812;BME280;1921;49.368;11.068;2024-03-08T10:18:21;97299.41;;;9.93;48.71
3812;BME280;1921;49.368;11.068;2024-03-08T10:21:03;97339.13;;;9.42;50.65
3812;BME280;1921;49.368;11.068;2024-03-08T10:23:30;97325.38;;;9.57;49.81
3812;BME280;1921;49.368;11.068;2024-03-08T10:25:56;97258.75;;;9.48;48.99
3812;BME280;1921;49.368;11.068;2024-03-08T10:28:24;97340.41;;;10.65;47.35
3812;BME280;1921;49.368;11.068;2024-03-08T10:30:50;97334.97;;;10.15;48.26
3812;BME280;1921;49.368;11.068;2024-03-08T10:33:16;97327.50;;;10.12;47.60
3812;BME280;1921;49.368;11.068;2024-03-08T10:35:42;97293.47;;;9.99;48.06
3812;BME280;1921;49.368;11.068;2024-03-08T10:38:09;97317.50;;;10.82;46.38
3812;BME280;1921;49.368;11.068;2024-03-08T10:40:38;97326.63;;;11.14;45.44
3812;BME280;1921;49.368;11.068;2024-03-08T10:43:07;97276.16;;;10.57;45.92
3812;BME280;1921;49.368;11.068;2024-03-08T10:45:40;97329.22;;;10.71;46.75
3812;BME280;1921;49.368;11.068;2024-03-08T10:48:30;97278.50;;;11.23;45.11
3812;BME280;1921;49.368;11.068;2024-03-08T10:51:02;97290.06;;;10.13;47.40
3812;BME280;1921;49.368;11.068;2024-03-08T10:53:28;97304.25;;;9.66;48.36
3812;BME280;1921;49.368;11.068;2024-03-08T10:55:58;97277.06;;;9.84;47.73
3812;BME280;1921;49.368;11.068;2024-03-08T10:58:27;97283.53;;;10.96;45.48
3812;BME280;1921;49.368;11.068;2024-03-08T11:00:57;97278.41;;;11.94;43.79
3812;BME280;1921;49.368;11.068;2024-03-08T11:08:56;97269.28;;;11.55;42.20
3812;BME280;1921;49.368;11.068;2024-03-08T11:11:33;97266.88;;;11.81;41.56
3812;BME280;1921;49.368;11.068;2024-03-08T11:14:02;97297.50;;;11.66;41.80
3812;BME280;1921;49.368;11.068;2024-03-08T11:19:05;97268.34;;;11.97;41.17
3812;BME280;1921;49.368;11.068;2024-03-08T11:21:32;97277.59;;;12.54;39.88
3812;BME280;1921;49.368;11.068;2024-03-08T11:24:13;97232.69;;;12.24;39.78
3812;BME280;1921;49.368;11.068;2024-03-08T11:26:40;97224.38;;;11.66;40.41
3812;BME280;1921;49.368;11.068;2024-03-08T11:32:15;97196.63;;;10.96;41.79
3812;BME280;1921;49.368;11.068;2024-03-08T11:34:48;97214.34;;;11.70;40.15
3812;BME280;1921;49.368;11.068;2024-03-08T11:37:19;97257.63;;;11.85;40.40
3812;BME280;1921;49.368;11.068;2024-03-08T11:39:54;97219.19;;;12.21;40.19
3812;BME280;1921;49.368;11.068;2024-03-08T11:42:27;97224.53;;;12.93;38.42
3812;BME280;1921;49.368;11.068;2024-03-08T11:44:53;97210.44;;;12.68;39.68
3812;BME280;1921;49.368;11.068;2024-03-08T11:47:20;97174.00;;;13.00;37.79
3812;BME280;1921;49.368;11.068;2024-03-08T11:49:46;97224.94;;;13.37;37.61
3812;BME280;1921;49.368;11.068;2024-03-08T11:52:17;97154.88;;;12.86;37.34
3812;BME280;1921;49.368;11.068;2024-03-08T11:54:52;97164.72;;;12.90;37.92
3812;BME280;1921;49.368;11.068;2024-03-08T11:57:23;97210.94;;;13.69;36.99
3812;BME280;1921;49.368;11.068;2024-03-08T11:59:51;97173.16;;;13.32;36.46
3812;BME280;1921;49.368;11.068;2024-03-08T12:02:17;97142.94;;;12.10;38.06
3812;BME280;1921;49.368;11.068;2024-03-08T12:04:45;97158.06;;;12.42;37.71
3812;BME280;1921;49.368;11.068;2024-03-08T12:07:11;97133.91;;;12.06;38.00
3812;BME280;1921;49.368;11.068;2024-03-08T12:09:39;97169.38;;;12.62;38.05
3812;BME280;1921;49.368;11.068;2024-03-08T12:12:07;97203.78;;;13.12;37.29
3812;BME280;1921;49.368;11.068;2024-03-08T12:14:36;97168.94;;;13.18;37.98
3812;BME280;1921;49.368;11.068;2024-03-08T12:17:02;97194.69;;;13.99;36.30
3812;BME280;1921;49.368;11.068;2024-03-08T12:19:30;96965.47;;;12.80;35.69
3812;BME280;1921;49.368;11.068;2024-03-08T12:21:55;97143.50;;;13.45;36.70
3812;BME280;1921;49.368;11.068;2024-03-08T12:24:21;97155.22;;;13.36;36.31
3812;BME280;1921;49.368;11.068;2024-03-08T12:26:48;97136.13;;;12.23;40.34
3812;BME280;1921;49.368;11.068;2024-03-08T12:29:20;97154.81;;;12.13;41.33
3812;BME280;1921;49.368;11.068;2024-03-08T12:31:51;97184.84;;;13.10;39.34
3812;BME280;1921;49.368;11.068;2024-03-08T12:34:18;97144.00;;;12.89;39.27
3812;BME280;1921;49.368;11.068;2024-03-08T12:36:48;97144.75;;;12.03;41.31
3812;BME280;1921;49.368;11.068;2024-03-08T12:39:20;97142.03;;;11.77;42.00
3812;BME280;1921;49.368;11.068;2024-03-08T12:41:49;97130.09;;;12.16;41.84
3812;BME280;1921;49.368;11.068;2024-03-08T12:44:17;97176.91;;;12.10;40.84
3812;BME280;1921;49.368;11.068;2024-03-08T12:46:44;97137.91;;;12.09;41.68
3812;BME280;1921;49.368;11.068;2024-03-08T12:49:11;97146.44;;;11.76;41.83
3812;BME280;1921;49.368;11.068;2024-03-08T12:51:38;97024.81;;;11.47;40.41
3812;BME280;1921;49.368;11.068;2024-03-08T12:54:05;97111.41;;;12.58;40.35
3812;BME280;1921;49.368;11.068;2024-03-08T12:56:34;97069.53;;;11.85;40.51
3812;BME280;1921;49.368;11.068;2024-03-08T12:59:01;97116.56;;;13.31;38.88
3812;BME280;1921;49.368;11.068;2024-03-08T13:01:27;97118.56;;;13.36;37.90
3812;BME280;1921;49.368;11.068;2024-03-08T13:03:53;97111.59;;;13.99;37.24
3812;BME280;1921;49.368;11.068;2024-03-08T13:06:21;97127.31;;;13.68;37.19
3812;BME280;1921;49.368;11.068;2024-03-08T13:08:51;97095.34;;;14.22;36.16
3812;BME280;1921;49.368;11.068;2024-03-08T13:11:18;97116.34;;;14.72;35.75
3812;BME280;1921;49.368;11.068;2024-03-08T13:13:45;97096.09;;;12.82;38.69
3812;BME280;1921;49.368;11.068;2024-03-08T13:16:11;97111.88;;;13.40;37.99
3812;BME280;1921;49.368;11.068;2024-03-08T13:18:43;97104.66;;;13.29;37.66
3812;BME280;1921;49.368;11.068;2024-03-08T13:21:10;97083.06;;;13.40;37.17
3812;BME280;1921;49.368;11.068;2024-03-08T13:23:37;97102.63;;;13.37;37.52
3812;BME280;1921;49.368;11.068;2024-03-08T13:26:07;97069.50;;;13.56;36.65
3812;BME280;1921;49.368;11.068;2024-03-08T13:28:33;97064.47;;;12.90;37.35